Time;durP1;ratioP1;P1;durP2;ratioP2;P2;SDS_P1;SDS_P2;PMS_P1;PMS_P2;Temp;Humidity;BMP_temperature;BMP_pressure;BME280_temperature;BME280_humidity;BME280_pressure;Samples;Min_cycle;Max_cycle;Signal;HPM_P1;HPM_P2
2022/01/13 00:00:57;;;;;;;;;;;;;;;;;;2107038;28;19923;-44
2022/01/13 00:02:01;;;;;;;;;;;;;;;;;;2106834;28;20273;-44
2022/01/13 00:03:02;;;;;;;;;;;;;;;;;;2103393;28;19920;-44
2022/01/13 00:04:03;;;;;;;;;;;;;;;;;;2098436;28;19920;-44
2022/01/13 00:05:04;;;;;;;;;;;;;;;;;;2099250;28;19924;-44
2022/01/13 00:06:05;;;;;;;;;;;;;;;;;;2110437;28;19920;-44
2022/01/13 00:07:06;;;;;;;;;;;;;;;;;;2115299;28;19920;-44
2022/01/13 00:08:07;;;;;;;;;;;;;;;;;;2111300;28;19924;-44
2022/01/13 00:09:07;;;;;;;;;;;;;;;;;;2112300;28;19984;-44
2022/01/13 00:10:08;;;;;;;;;;;;;;;;;;2115286;28;19927;-44
2022/01/13 00:11:09;;;;;;;;;;;;;;;;;;2107533;28;20311;-44
2022/01/13 00:12:11;;;;;;;;;;;;;;;;;;2099296;28;20414;-44
2022/01/13 00:13:21;;;;;;;;;;;;;;;;;;2098507;28;20014;-44
2022/01/13 00:14:39;;;;;;;;;;;;;;;;;;2106464;28;20010;-44
2022/01/13 00:15:45;;;;;;;;;;;;;;;;;;2115428;28;20270;-44
2022/01/13 00:17:07;;;;;;;;;;;;;;;;;;2108887;28;19920;-44
2022/01/13 00:18:13;;;;;;;;;;;;;;;;;;2098366;28;20492;-44
2022/01/13 00:19:30;;;;;;;;;;;;;;;;;;2099301;28;20011;-44
2022/01/13 00:21:00;;;;;;;;;;;;;;;;;;2114143;28;19998;-44
2022/01/13 00:22:16;;;;;;;;;;;;;;;;;;2112811;28;20432;-44
2022/01/13 00:24:36;;;;;;;;;;;;;;;;;;2115251;28;20011;-44
2022/01/13 00:25:37;;;;;;;;;;;;;;;;;;2107322;28;20119;-44
2022/01/13 00:26:38;;;;;;;;;;;;;;;;;;2106683;28;19920;-44
2022/01/13 00:27:43;;;;;;;;;;;;;;;;;;2105710;28;20001;-48
2022/01/13 00:28:45;;;;;;;;;;;;;;;;;;2110229;28;20108;-50
2022/01/13 00:29:46;;;;;;;;;;;;;;;;;;2115097;28;20036;-48
2022/01/13 00:30:51;;;;;;;;;;;;;;;;;;2109422;28;19974;-49
2022/01/13 00:31:52;;;;;;;;;;;;;;;;;;2099927;28;19959;-48
2022/01/13 00:32:53;;;;;;;;;;;;;;;;;;2098346;28;20316;-48
2022/01/13 00:33:54;;;;;;;;;;;;;;;;;;2101397;28;20377;-51
2022/01/13 00:34:55;;;;;;;;;;;;;;;;;;2098143;28;20019;-50
2022/01/13 00:35:57;;;;;;;;;;;;;;;;;;2098329;28;19924;-48
2022/01/13 00:36:58;;;;;;;;;;;;;;;;;;2106198;28;19949;-49
2022/01/13 00:37:59;;;;;;;;;;;;;;;;;;2115058;28;20038;-49
2022/01/13 00:39:00;;;;;;;;;;;;;;;;;;2112930;28;19938;-49
2022/01/13 00:40:00;;;;;;;;;;;;;;;;;;2103157;28;20273;-48
2022/01/13 00:41:01;;;;;;;;;;;;;;;;;;2106541;28;19920;-49
2022/01/13 00:42:02;;;;;;;;;;;;;;;;;;2105698;28;19920;-48
2022/01/13 00:43:03;;;;;;;;;;;;;;;;;;2112533;28;19919;-52
2022/01/13 00:44:04;;;;;;;;;;;;;;;;;;2115144;28;19920;-48
2022/01/13 00:45:05;;;;;;;;;;;;;;;;;;2108896;28;19942;-48
2022/01/13 00:46:06;;;;;;;;;;;;;;;;;;2114050;28;19920;-48
2022/01/13 00:47:09;;;;;;;;;;;;;;;;;;2115105;28;19920;-49
2022/01/13 00:48:09;;;;;;;;;;;;;;;;;;2107498;28;20037;-49
2022/01/13 00:49:10;;;;;;;;;;;;;;;;;;2106622;28;20323;-49
2022/01/13 00:50:11;;;;;;;;;;;;;;;;;;2106494;28;20328;-47
2022/01/13 00:51:12;;;;;;;;;;;;;;;;;;2105230;28;19920;-49
2022/01/13 00:52:13;;;;;;;;;;;;;;;;;;2106530;28;19934;-49
2022/01/13 00:53:14;;;;;;;;;;;;;;;;;;2105833;28;19920;-51
2022/01/13 00:54:14;;;;;;;;;;;;;;;;;;2109141;28;19945;-48
2022/01/13 00:55:20;;;;;;;;;;;;;;;;;;2114891;28;20406;-49
2022/01/13 00:56:21;;;;;;;;;;;;;;;;;;2110876;28;20364;-49
2022/01/13 00:57:23;;;;;;;;;;;;;;;;;;2105546;28;20239;-51
2022/01/13 00:58:24;;;;;;;;;;;;;;;;;;2106468;28;20022;-48
2022/01/13 00:59:25;;;;;;;;;;;;;;;;;;2106667;28;19965;-47
2022/01/13 01:00:26;;;;;;;;;;;;;;;;;;2106539;28;20341;-49
2022/01/13 01:01:27;;;;;;;;;;;;;;;;;;2106410;28;19920;-52
2022/01/13 01:02:28;;;;;;;;;;;;;;;;;;2102379;28;19927;-48
2022/01/13 01:03:29;;;;;;;;;;;;;;;;;;2098263;28;19920;-47
2022/01/13 01:04:29;;;;;;;;;;;;;;;;;;2098426;28;19920;-48
2022/01/13 01:05:32;;;;;;;;;;;;;;;;;;2109084;28;19934;-50
2022/01/13 01:06:33;;;;;;;;;;;;;;;;;;2114906;28;20018;-49
2022/01/13 01:07:35;;;;;;;;;;;;;;;;;;2109937;28;19928;-50
2022/01/13 01:08:35;;;;;;;;;;;;;;;;;;2111753;28;20025;-49
2022/01/13 01:09:40;;;;;;;;;;;;;;;;;;2114956;28;19924;-50
2022/01/13 01:10:40;;;;;;;;;;;;;;;;;;2110782;28;19920;-49
2022/01/13 01:11:42;;;;;;;;;;;;;;;;;;2098591;28;19920;-49
2022/01/13 01:12:43;;;;;;;;;;;;;;;;;;2098005;28;19920;-50
2022/01/13 01:13:47;;;;;;;;;;;;;;;;;;2105145;28;20400;-48
2022/01/13 01:14:54;;;;;;;;;;;;;;;;;;2114806;28;20010;-50
2022/01/13 01:15:56;;;;;;;;;;;;;;;;;;2112693;28;20007;-51
2022/01/13 01:16:57;;;;;;;;;;;;;;;;;;2110161;28;19923;-51
2022/01/13 01:18:05;;;;;;;;;;;;;;;;;;2114941;28;19919;-48
2022/01/13 01:19:08;;;;;;;;;;;;;;;;;;2107929;28;20015;-48
2022/01/13 01:20:09;;;;;;;;;;;;;;;;;;2104796;28;20006;-48
2022/01/13 01:21:33;;;;;;;;;;;;;;;;;;2106330;28;20032;-49
2022/01/13 01:22:56;;;;;;;;;;;;;;;;;;2108945;28;20010;-48
2022/01/13 01:24:13;;;;;;;;;;;;;;;;;;2114744;28;20439;-49
2022/01/13 01:26:40;;;;;;;;;;;;;;;;;;2106349;28;19998;-48
2022/01/13 01:27:45;;;;;;;;;;;;;;;;;;2105224;28;20019;-49
2022/01/13 01:28:51;;;;;;;;;;;;;;;;;;2106450;28;20052;-48
2022/01/13 01:29:56;;;;;;;;;;;;;;;;;;2106330;28;20420;-47
2022/01/13 01:30:57;;;;;;;;;;;;;;;;;;2108603;28;20050;-48
2022/01/13 01:31:58;;;;;;;;;;;;;;;;;;2114755;28;19973;-49
2022/01/13 01:33:01;;;;;;;;;;;;;;;;;;2109277;28;20327;-48
2022/01/13 01:34:16;;;;;;;;;;;;;;;;;;2111960;28;19920;-48
2022/01/13 01:35:18;;;;;;;;;;;;;;;;;;2114732;28;20003;-49
2022/01/13 01:36:19;;;;;;;;;;;;;;;;;;2106365;28;20011;-48
2022/01/13 01:37:20;;;;;;;;;;;;;;;;;;2114666;28;19931;-47
2022/01/13 01:38:22;;;;;;;;;;;;;;;;;;2114808;28;19972;-47
2022/01/13 01:39:22;;;;;;;;;;;;;;;;;;2105336;28;19926;-47
2022/01/13 01:40:23;;;;;;;;;;;;;;;;;;2106060;28;20159;-47
2022/01/13 01:41:24;;;;;;;;;;;;;;;;;;2105521;28;19978;-48
2022/01/13 01:42:25;;;;;;;;;;;;;;;;;;2105888;28;19943;-42
2022/01/13 01:43:26;;;;;;;;;;;;;;;;;;2106287;28;19920;-43
2022/01/13 01:44:30;;;;;;;;;;;;;;;;;;2107329;28;19924;-42
2022/01/13 01:45:33;;;;;;;;;;;;;;;;;;2098869;28;19931;-43
2022/01/13 01:46:34;;;;;;;;;;;;;;;;;;2097684;28;19951;-43
2022/01/13 01:47:35;;;;;;;;;;;;;;;;;;2101266;28;20361;-43
2022/01/13 01:48:36;;;;;;;;;;;;;;;;;;2106201;28;19924;-43
2022/01/13 01:49:40;;;;;;;;;;;;;;;;;;2106300;28;20003;-43
2022/01/13 01:50:41;;;;;;;;;;;;;;;;;;2102629;28;19955;-43
2022/01/13 01:51:41;;;;;;;;;;;;;;;;;;2106096;28;19927;-43
2022/01/13 01:52:42;;;;;;;;;;;;;;;;;;2105797;28;19920;-43
2022/01/13 01:53:43;;;;;;;;;;;;;;;;;;2105556;28;20304;-43
2022/01/13 01:54:44;;;;;;;;;;;;;;;;;;2106182;28;19920;-43
2022/01/13 01:55:45;;;;;;;;;;;;;;;;;;2104006;28;19931;-43
2022/01/13 01:56:46;;;;;;;;;;;;;;;;;;2111377;28;19924;-44
2022/01/13 01:57:47;;;;;;;;;;;;;;;;;;2114496;28;20265;-43
2022/01/13 01:58:47;;;;;;;;;;;;;;;;;;2108826;28;20416;-43
2022/01/13 01:59:49;;;;;;;;;;;;;;;;;;2105015;28;19920;-43
2022/01/13 02:00:50;;;;;;;;;;;;;;;;;;2106140;28;19924;-43
2022/01/13 02:01:51;;;;;;;;;;;;;;;;;;2105512;28;19920;-43
2022/01/13 02:02:55;;;;;;;;;;;;;;;;;;2114712;28;19920;-43
2022/01/13 02:03:55;;;;;;;;;;;;;;;;;;2113771;28;20018;-42
2022/01/13 02:04:57;;;;;;;;;;;;;;;;;;2104379;28;19928;-42
2022/01/13 02:05:58;;;;;;;;;;;;;;;;;;2106082;28;20332;-42
2022/01/13 02:07:02;;;;;;;;;;;;;;;;;;2103999;28;19920;-43
2022/01/13 02:08:04;;;;;;;;;;;;;;;;;;2100676;28;20031;-43
2022/01/13 02:09:05;;;;;;;;;;;;;;;;;;2097674;28;19920;-43
2022/01/13 02:10:06;;;;;;;;;;;;;;;;;;2100418;28;19920;-42
2022/01/13 02:11:07;;;;;;;;;;;;;;;;;;2113730;28;19950;-42
2022/01/13 02:12:10;;;;;;;;;;;;;;;;;;2114675;28;19919;-43
2022/01/13 02:13:14;;;;;;;;;;;;;;;;;;2105907;28;20003;-43
2022/01/13 02:14:31;;;;;;;;;;;;;;;;;;2097866;28;20035;-43
2022/01/13 02:15:35;;;;;;;;;;;;;;;;;;2100574;28;20065;-43
2022/01/13 02:16:43;;;;;;;;;;;;;;;;;;2104559;28;20394;-43
2022/01/13 02:17:44;;;;;;;;;;;;;;;;;;2106132;28;20006;-43
2022/01/13 02:18:45;;;;;;;;;;;;;;;;;;2103802;28;20471;-43
2022/01/13 02:19:46;;;;;;;;;;;;;;;;;;2097670;28;20137;-42
2022/01/13 02:20:47;;;;;;;;;;;;;;;;;;2097854;28;19924;-43
2022/01/13 02:21:48;;;;;;;;;;;;;;;;;;2100867;28;19928;-43
2022/01/13 02:22:49;;;;;;;;;;;;;;;;;;2097974;28;19967;-43
2022/01/13 02:23:50;;;;;;;;;;;;;;;;;;2098083;28;19924;-43
2022/01/13 02:24:51;;;;;;;;;;;;;;;;;;2104156;28;19924;-42
2022/01/13 02:25:52;;;;;;;;;;;;;;;;;;2105939;28;19920;-43
2022/01/13 02:26:52;;;;;;;;;;;;;;;;;;2106173;28;19942;-43
2022/01/13 02:27:53;;;;;;;;;;;;;;;;;;2104656;28;19978;-43
2022/01/13 02:28:54;;;;;;;;;;;;;;;;;;2105710;28;19920;-43
2022/01/13 02:29:55;;;;;;;;;;;;;;;;;;2104519;28;19927;-43
2022/01/13 02:30:55;;;;;;;;;;;;;;;;;;2113453;28;20402;-43
2022/01/13 02:31:56;;;;;;;;;;;;;;;;;;2114838;28;20280;-43
2022/01/13 02:32:57;;;;;;;;;;;;;;;;;;2108450;28;19920;-43
2022/01/13 02:33:58;;;;;;;;;;;;;;;;;;2107576;28;19920;-48
2022/01/13 02:34:59;;;;;;;;;;;;;;;;;;2107375;28;19920;-47
2022/01/13 02:36:00;;;;;;;;;;;;;;;;;;2108125;28;19924;-48
2022/01/13 02:37:00;;;;;;;;;;;;;;;;;;2115945;28;19924;-48
2022/01/13 02:38:01;;;;;;;;;;;;;;;;;;2113392;28;20324;-48
2022/01/13 02:39:04;;;;;;;;;;;;;;;;;;2105172;28;19920;-48
2022/01/13 02:40:04;;;;;;;;;;;;;;;;;;2100663;28;20440;-48
2022/01/13 02:41:05;;;;;;;;;;;;;;;;;;2107644;28;19924;-48
2022/01/13 02:42:11;;;;;;;;;;;;;;;;;;2106082;28;19924;-47
2022/01/13 02:43:12;;;;;;;;;;;;;;;;;;2107556;28;19965;-48
2022/01/13 02:44:16;;;;;;;;;;;;;;;;;;2108750;28;19988;-48
2022/01/13 02:45:20;;;;;;;;;;;;;;;;;;2107430;28;20006;-48
2022/01/13 02:46:29;;;;;;;;;;;;;;;;;;2107381;28;20011;-48
2022/01/13 02:47:37;;;;;;;;;;;;;;;;;;2105044;28;19920;-49
2022/01/13 02:48:40;;;;;;;;;;;;;;;;;;2107345;28;20443;-49
2022/01/13 02:49:41;;;;;;;;;;;;;;;;;;2105093;28;19920;-48
2022/01/13 02:50:42;;;;;;;;;;;;;;;;;;2100774;28;20037;-49
2022/01/13 02:51:43;;;;;;;;;;;;;;;;;;2098867;28;20421;-48
2022/01/13 02:52:44;;;;;;;;;;;;;;;;;;2103546;28;20015;-48
2022/01/13 02:53:45;;;;;;;;;;;;;;;;;;2099072;28;20401;-48
2022/01/13 02:54:45;;;;;;;;;;;;;;;;;;2098998;28;19950;-49
2022/01/13 02:55:46;;;;;;;;;;;;;;;;;;2105226;28;20230;-48
2022/01/13 02:56:47;;;;;;;;;;;;;;;;;;2115771;28;20002;-49
2022/01/13 02:57:48;;;;;;;;;;;;;;;;;;2114719;28;19957;-47
2022/01/13 02:58:49;;;;;;;;;;;;;;;;;;2109722;28;19926;-48
2022/01/13 02:59:50;;;;;;;;;;;;;;;;;;2115796;28;19932;-48
2022/01/13 03:00:50;;;;;;;;;;;;;;;;;;2112202;28;20311;-47
2022/01/13 03:01:52;;;;;;;;;;;;;;;;;;2104282;28;19974;-49
2022/01/13 03:02:53;;;;;;;;;;;;;;;;;;2098880;28;19959;-48
2022/01/13 03:03:54;;;;;;;;;;;;;;;;;;2100659;28;19968;-50
2022/01/13 03:04:55;;;;;;;;;;;;;;;;;;2100387;28;19920;-47
2022/01/13 03:05:56;;;;;;;;;;;;;;;;;;2098916;28;20416;-48
2022/01/13 03:06:56;;;;;;;;;;;;;;;;;;2102208;28;19924;-48
2022/01/13 03:07:57;;;;;;;;;;;;;;;;;;2107317;28;19945;-48
2022/01/13 03:08:58;;;;;;;;;;;;;;;;;;2107346;28;19920;-47
2022/01/13 03:09:59;;;;;;;;;;;;;;;;;;2104295;28;20278;-48
2022/01/13 03:11:00;;;;;;;;;;;;;;;;;;2098777;28;20031;-48
2022/01/13 03:12:01;;;;;;;;;;;;;;;;;;2098705;28;19920;-51
2022/01/13 03:13:02;;;;;;;;;;;;;;;;;;2109762;28;20036;-47
2022/01/13 03:14:03;;;;;;;;;;;;;;;;;;2115770;28;20008;-48
2022/01/13 03:15:04;;;;;;;;;;;;;;;;;;2110685;28;20776;-48
2022/01/13 03:16:05;;;;;;;;;;;;;;;;;;2112051;28;19927;-48
2022/01/13 03:17:06;;;;;;;;;;;;;;;;;;2115733;28;19919;-50
2022/01/13 03:18:07;;;;;;;;;;;;;;;;;;2110115;28;19927;-48
2022/01/13 03:19:08;;;;;;;;;;;;;;;;;;2099753;28;19920;-47
2022/01/13 03:20:08;;;;;;;;;;;;;;;;;;2098858;28;19959;-47
2022/01/13 03:21:09;;;;;;;;;;;;;;;;;;2102962;28;19973;-50
2022/01/13 03:22:10;;;;;;;;;;;;;;;;;;2115691;28;19928;-47
2022/01/13 03:23:15;;;;;;;;;;;;;;;;;;2115493;28;19919;-47
2022/01/13 03:24:16;;;;;;;;;;;;;;;;;;2108147;28;19949;-47
2022/01/13 03:25:21;;;;;;;;;;;;;;;;;;2112669;28;19950;-48
2022/01/13 03:26:23;;;;;;;;;;;;;;;;;;2107493;28;19920;-49
2022/01/13 03:27:33;;;;;;;;;;;;;;;;;;2105653;28;20006;-49
2022/01/13 03:28:39;;;;;;;;;;;;;;;;;;2107208;28;20056;-48
2022/01/13 03:29:39;;;;;;;;;;;;;;;;;;2104185;28;19920;-48
2022/01/13 03:30:41;;;;;;;;;;;;;;;;;;2098715;28;19924;-51
2022/01/13 03:31:41;;;;;;;;;;;;;;;;;;2098673;28;19981;-50
2022/01/13 03:32:42;;;;;;;;;;;;;;;;;;2106910;28;19980;-48
2022/01/13 03:33:43;;;;;;;;;;;;;;;;;;2115570;28;19919;-48
2022/01/13 03:34:44;;;;;;;;;;;;;;;;;;2112337;28;19937;-49
2022/01/13 03:35:44;;;;;;;;;;;;;;;;;;2109513;28;19919;-49
2022/01/13 03:36:45;;;;;;;;;;;;;;;;;;2115408;28;20078;-50
2022/01/13 03:37:46;;;;;;;;;;;;;;;;;;2110288;28;20259;-48
2022/01/13 03:38:47;;;;;;;;;;;;;;;;;;2100995;28;19920;-48
2022/01/13 03:39:48;;;;;;;;;;;;;;;;;;2098788;28;19944;-48
2022/01/13 03:40:50;;;;;;;;;;;;;;;;;;2108858;28;19968;-43
2022/01/13 03:41:51;;;;;;;;;;;;;;;;;;2099293;28;20339;-44
2022/01/13 03:42:53;;;;;;;;;;;;;;;;;;2098264;28;19924;-43
2022/01/13 03:43:54;;;;;;;;;;;;;;;;;;2102089;28;19927;-43
2022/01/13 03:44:55;;;;;;;;;;;;;;;;;;2098727;28;19927;-43
2022/01/13 03:45:56;;;;;;;;;;;;;;;;;;2098731;28;19947;-43
2022/01/13 03:46:59;;;;;;;;;;;;;;;;;;2106027;28;19930;-43
2022/01/13 03:48:00;;;;;;;;;;;;;;;;;;2107013;28;19966;-43
2022/01/13 03:49:01;;;;;;;;;;;;;;;;;;2106441;28;20300;-43
2022/01/13 03:50:02;;;;;;;;;;;;;;;;;;2111394;28;20327;-43
2022/01/13 03:51:02;;;;;;;;;;;;;;;;;;2115346;28;19920;-43
2022/01/13 03:52:05;;;;;;;;;;;;;;;;;;2108501;28;19925;-43
2022/01/13 03:53:06;;;;;;;;;;;;;;;;;;2114575;28;20011;-43
2022/01/13 03:54:07;;;;;;;;;;;;;;;;;;2115277;28;19927;-43
2022/01/13 03:55:07;;;;;;;;;;;;;;;;;;2107927;28;19981;-43
2022/01/13 03:56:08;;;;;;;;;;;;;;;;;;2098441;28;20015;-43
2022/01/13 03:57:09;;;;;;;;;;;;;;;;;;2098556;28;19928;-43
2022/01/13 03:58:11;;;;;;;;;;;;;;;;;;2105281;28;19953;-43
2022/01/13 03:59:12;;;;;;;;;;;;;;;;;;2106749;28;19930;-43
2022/01/13 04:00:13;;;;;;;;;;;;;;;;;;2105476;28;19920;-43
2022/01/13 04:01:13;;;;;;;;;;;;;;;;;;2109898;28;20311;-43
2022/01/13 04:02:14;;;;;;;;;;;;;;;;;;2115375;28;20018;-43
2022/01/13 04:03:15;;;;;;;;;;;;;;;;;;2112729;28;20014;-43
2022/01/13 04:04:16;;;;;;;;;;;;;;;;;;2105509;28;20003;-43
2022/01/13 04:05:17;;;;;;;;;;;;;;;;;;2106904;28;19926;-43
2022/01/13 04:06:18;;;;;;;;;;;;;;;;;;2106118;28;19926;-43
2022/01/13 04:07:19;;;;;;;;;;;;;;;;;;2105563;28;19975;-43
2022/01/13 04:08:19;;;;;;;;;;;;;;;;;;2106818;28;19926;-43
2022/01/13 04:09:20;;;;;;;;;;;;;;;;;;2105734;28;19928;-43
2022/01/13 04:10:21;;;;;;;;;;;;;;;;;;2106802;28;20402;-43
2022/01/13 04:11:22;;;;;;;;;;;;;;;;;;2106888;28;19920;-43
2022/01/13 04:12:25;;;;;;;;;;;;;;;;;;2105606;28;20010;-43
2022/01/13 04:13:46;;;;;;;;;;;;;;;;;;2106992;28;19924;-43
2022/01/13 04:14:49;;;;;;;;;;;;;;;;;;2106184;28;19970;-43
2022/01/13 04:15:50;;;;;;;;;;;;;;;;;;2105753;28;20430;-43
2022/01/13 04:16:51;;;;;;;;;;;;;;;;;;2106697;28;19973;-43
2022/01/13 04:17:52;;;;;;;;;;;;;;;;;;2105136;28;20358;-43
2022/01/13 04:18:54;;;;;;;;;;;;;;;;;;2115189;28;19920;-43
2022/01/13 04:19:55;;;;;;;;;;;;;;;;;;2114571;28;20022;-43
2022/01/13 04:20:55;;;;;;;;;;;;;;;;;;2107603;28;19920;-43
2022/01/13 04:21:56;;;;;;;;;;;;;;;;;;2108728;28;19931;-43
2022/01/13 04:22:57;;;;;;;;;;;;;;;;;;2106127;28;19924;-43
2022/01/13 04:23:58;;;;;;;;;;;;;;;;;;2110692;28;20380;-43
2022/01/13 04:24:59;;;;;;;;;;;;;;;;;;2115270;28;19920;-43
2022/01/13 04:26:00;;;;;;;;;;;;;;;;;;2110753;28;19927;-43
2022/01/13 04:27:01;;;;;;;;;;;;;;;;;;2113753;28;19923;-43
2022/01/13 04:28:03;;;;;;;;;;;;;;;;;;2115186;28;19973;-43
2022/01/13 04:29:17;;;;;;;;;;;;;;;;;;2107230;28;19927;-43
2022/01/13 04:30:45;;;;;;;;;;;;;;;;;;2106782;28;20007;-43
2022/01/13 04:31:46;;;;;;;;;;;;;;;;;;2104828;28;19976;-43
2022/01/13 04:32:47;;;;;;;;;;;;;;;;;;2098511;28;19999;-43
2022/01/13 04:33:47;;;;;;;;;;;;;;;;;;2098443;28;19920;-43
2022/01/13 04:34:48;;;;;;;;;;;;;;;;;;2106700;28;19920;-42
2022/01/13 04:35:49;;;;;;;;;;;;;;;;;;2106736;28;19920;-42
2022/01/13 04:36:51;;;;;;;;;;;;;;;;;;2106249;28;19931;-43
2022/01/13 04:37:52;;;;;;;;;;;;;;;;;;2105828;28;20057;-43
2022/01/13 04:38:53;;;;;;;;;;;;;;;;;;2106631;28;19923;-43
2022/01/13 04:39:53;;;;;;;;;;;;;;;;;;2105986;28;19927;-42
2022/01/13 04:40:56;;;;;;;;;;;;;;;;;;2100244;28;19927;-43
2022/01/13 04:41:57;;;;;;;;;;;;;;;;;;2098165;28;20007;-43
2022/01/13 04:42:58;;;;;;;;;;;;;;;;;;2101086;28;19920;-42
2022/01/13 04:43:59;;;;;;;;;;;;;;;;;;2114761;28;19919;-43
2022/01/13 04:44:59;;;;;;;;;;;;;;;;;;2115040;28;19972;-43
2022/01/13 04:46:00;;;;;;;;;;;;;;;;;;2106593;28;19921;-42
2022/01/13 04:47:07;;;;;;;;;;;;;;;;;;2106627;28;19920;-42
2022/01/13 04:48:08;;;;;;;;;;;;;;;;;;2106260;28;20006;-42
2022/01/13 04:49:09;;;;;;;;;;;;;;;;;;2101112;28;19920;-43
2022/01/13 04:50:10;;;;;;;;;;;;;;;;;;2098273;28;20015;-42
2022/01/13 04:51:11;;;;;;;;;;;;;;;;;;2101488;28;19920;-43
2022/01/13 04:52:11;;;;;;;;;;;;;;;;;;2105144;28;19927;-43
2022/01/13 04:53:12;;;;;;;;;;;;;;;;;;2106502;28;20365;-43
2022/01/13 04:54:13;;;;;;;;;;;;;;;;;;2105144;28;19926;-43
2022/01/13 04:55:21;;;;;;;;;;;;;;;;;;2105993;28;19969;-43
2022/01/13 04:56:29;;;;;;;;;;;;;;;;;;2106621;28;20002;-42
2022/01/13 04:57:29;;;;;;;;;;;;;;;;;;2108422;28;20431;-42
2022/01/13 04:58:30;;;;;;;;;;;;;;;;;;2114894;28;19972;-43
2022/01/13 04:59:31;;;;;;;;;;;;;;;;;;2111156;28;19920;-42
2022/01/13 05:00:32;;;;;;;;;;;;;;;;;;2110457;28;20364;-42
2022/01/13 05:01:33;;;;;;;;;;;;;;;;;;2114822;28;19920;-42
2022/01/13 05:02:34;;;;;;;;;;;;;;;;;;2110476;28;20369;-42
2022/01/13 05:03:35;;;;;;;;;;;;;;;;;;2105414;28;20030;-42
2022/01/13 05:04:35;;;;;;;;;;;;;;;;;;2106453;28;19942;-43
2022/01/13 05:05:36;;;;;;;;;;;;;;;;;;2103649;28;19978;-42
2022/01/13 05:06:37;;;;;;;;;;;;;;;;;;2114709;28;20315;-42
2022/01/13 05:07:38;;;;;;;;;;;;;;;;;;2115040;28;20387;-42
2022/01/13 05:08:39;;;;;;;;;;;;;;;;;;2106582;28;19970;-42
2022/01/13 05:09:40;;;;;;;;;;;;;;;;;;2106446;28;19920;-42
2022/01/13 05:10:41;;;;;;;;;;;;;;;;;;2105691;28;19972;-42
2022/01/13 05:11:41;;;;;;;;;;;;;;;;;;2101635;28;19920;-43
2022/01/13 05:12:44;;;;;;;;;;;;;;;;;;2098026;28;19920;-42
2022/01/13 05:13:45;;;;;;;;;;;;;;;;;;2099597;28;19950;-42
2022/01/13 05:14:52;;;;;;;;;;;;;;;;;;2111188;28;19958;-43
2022/01/13 05:15:55;;;;;;;;;;;;;;;;;;2114847;28;20007;-44
2022/01/13 05:17:01;;;;;;;;;;;;;;;;;;2108917;28;19920;-44
2022/01/13 05:18:10;;;;;;;;;;;;;;;;;;2102548;28;20000;-43
2022/01/13 05:19:14;;;;;;;;;;;;;;;;;;2106181;28;19956;-43
2022/01/13 05:20:18;;;;;;;;;;;;;;;;;;2109029;28;20464;-43
2022/01/13 05:21:23;;;;;;;;;;;;;;;;;;2114771;28;20014;-44
2022/01/13 05:22:23;;;;;;;;;;;;;;;;;;2111602;28;20005;-44
2022/01/13 05:23:24;;;;;;;;;;;;;;;;;;2104969;28;19923;-43
2022/01/13 05:24:25;;;;;;;;;;;;;;;;;;2106426;28;19920;-44
2022/01/13 05:25:26;;;;;;;;;;;;;;;;;;2104085;28;19920;-43
2022/01/13 05:26:27;;;;;;;;;;;;;;;;;;2098357;28;20373;-44
2022/01/13 05:27:28;;;;;;;;;;;;;;;;;;2098078;28;19924;-44
2022/01/13 05:28:28;;;;;;;;;;;;;;;;;;2103453;28;20259;-44
2022/01/13 05:29:29;;;;;;;;;;;;;;;;;;2114754;28;19920;-44
2022/01/13 05:30:30;;;;;;;;;;;;;;;;;;2114217;28;19920;-43
2022/01/13 05:31:31;;;;;;;;;;;;;;;;;;2105442;28;19997;-44
2022/01/13 05:32:32;;;;;;;;;;;;;;;;;;2106311;28;19923;-43
2022/01/13 05:33:33;;;;;;;;;;;;;;;;;;2106134;28;19920;-43
2022/01/13 05:34:33;;;;;;;;;;;;;;;;;;2106293;28;19920;-44
2022/01/13 05:35:44;;;;;;;;;;;;;;;;;;2106367;28;20476;-44
2022/01/13 05:36:44;;;;;;;;;;;;;;;;;;2108791;28;19920;-44
2022/01/13 05:37:45;;;;;;;;;;;;;;;;;;2106163;28;19959;-44
2022/01/13 05:38:47;;;;;;;;;;;;;;;;;;2106238;28;20472;-44
2022/01/13 05:39:47;;;;;;;;;;;;;;;;;;2102884;28;19924;-46
2022/01/13 05:40:49;;;;;;;;;;;;;;;;;;2106108;28;20258;-45
2022/01/13 05:41:50;;;;;;;;;;;;;;;;;;2105585;28;20285;-44
2022/01/13 05:42:51;;;;;;;;;;;;;;;;;;2110785;28;19974;-44
2022/01/13 05:43:52;;;;;;;;;;;;;;;;;;2114825;28;19954;-44
2022/01/13 05:44:52;;;;;;;;;;;;;;;;;;2107733;28;19943;-45
2022/01/13 05:45:53;;;;;;;;;;;;;;;;;;2113458;28;19994;-44
2022/01/13 05:46:54;;;;;;;;;;;;;;;;;;2114686;28;19919;-42
2022/01/13 05:47:55;;;;;;;;;;;;;;;;;;2107563;28;20374;-44
2022/01/13 05:48:56;;;;;;;;;;;;;;;;;;2106226;28;19924;-44
2022/01/13 05:49:57;;;;;;;;;;;;;;;;;;2106359;28;20003;-44
2022/01/13 05:50:58;;;;;;;;;;;;;;;;;;2102866;28;19924;-48
2022/01/13 05:51:59;;;;;;;;;;;;;;;;;;2106104;28;20147;-49
2022/01/13 05:53:00;;;;;;;;;;;;;;;;;;2104834;28;19920;-48
2022/01/13 05:54:00;;;;;;;;;;;;;;;;;;2108826;28;19923;-50
2022/01/13 05:55:03;;;;;;;;;;;;;;;;;;2114642;28;20365;-50
2022/01/13 05:56:04;;;;;;;;;;;;;;;;;;2109396;28;19928;-49
2022/01/13 05:57:06;;;;;;;;;;;;;;;;;;2111558;28;20015;-50
2022/01/13 05:58:06;;;;;;;;;;;;;;;;;;2114629;28;20392;-49
2022/01/13 05:59:07;;;;;;;;;;;;;;;;;;2107284;28;19924;-48
2022/01/13 06:00:08;;;;;;;;;;;;;;;;;;2098722;28;19927;-50
2022/01/13 06:01:09;;;;;;;;;;;;;;;;;;2097896;28;19924;-48
2022/01/13 06:02:10;;;;;;;;;;;;;;;;;;2101315;28;19927;-48
2022/01/13 06:03:11;;;;;;;;;;;;;;;;;;2097939;28;20289;-49
2022/01/13 06:04:11;;;;;;;;;;;;;;;;;;2097908;28;19920;-51
2022/01/13 06:05:12;;;;;;;;;;;;;;;;;;2104933;28;20311;-47
2022/01/13 06:06:13;;;;;;;;;;;;;;;;;;2107140;28;19948;-48
2022/01/13 06:07:14;;;;;;;;;;;;;;;;;;2105568;28;19920;-49
2022/01/13 06:08:16;;;;;;;;;;;;;;;;;;2102881;28;19920;-48
2022/01/13 06:09:17;;;;;;;;;;;;;;;;;;2099280;28;19920;-47
2022/01/13 06:10:19;;;;;;;;;;;;;;;;;;2100587;28;20027;-47
2022/01/13 06:11:22;;;;;;;;;;;;;;;;;;2114688;28;19959;-48
2022/01/13 06:12:32;;;;;;;;;;;;;;;;;;2116145;28;20318;-48
2022/01/13 06:13:33;;;;;;;;;;;;;;;;;;2108870;28;20483;-49
2022/01/13 06:14:34;;;;;;;;;;;;;;;;;;2108493;28;19965;-48
2022/01/13 06:15:37;;;;;;;;;;;;;;;;;;2107216;28;19920;-48
2022/01/13 06:16:37;;;;;;;;;;;;;;;;;;2106743;28;19927;-47
2022/01/13 06:17:38;;;;;;;;;;;;;;;;;;2107472;28;19927;-48
2022/01/13 06:18:39;;;;;;;;;;;;;;;;;;2107849;28;19920;-51
2022/01/13 06:19:40;;;;;;;;;;;;;;;;;;2106210;28;19920;-50
2022/01/13 06:20:41;;;;;;;;;;;;;;;;;;2107478;28;20258;-47
2022/01/13 06:21:41;;;;;;;;;;;;;;;;;;2109118;28;19920;-47
2022/01/13 06:22:42;;;;;;;;;;;;;;;;;;2107873;28;19920;-49
2022/01/13 06:23:43;;;;;;;;;;;;;;;;;;2107587;28;19920;-47
2022/01/13 06:24:44;;;;;;;;;;;;;;;;;;2106401;28;19927;-48
2022/01/13 06:25:45;;;;;;;;;;;;;;;;;;2099105;28;19928;-48
2022/01/13 06:26:46;;;;;;;;;;;;;;;;;;2098974;28;19924;-49
2022/01/13 06:27:47;;;;;;;;;;;;;;;;;;2107009;28;19928;-50
2022/01/13 06:29:07;;;;;;;;;;;;;;;;;;2115956;28;19920;-49
2022/01/13 06:30:08;;;;;;;;;;;;;;;;;;2113467;28;19996;-48
2022/01/13 06:31:09;;;;;;;;;;;;;;;;;;2102124;28;19920;-49
2022/01/13 06:32:10;;;;;;;;;;;;;;;;;;2098868;28;20285;-48
2022/01/13 06:33:10;;;;;;;;;;;;;;;;;;2102894;28;19928;-51
2022/01/13 06:34:11;;;;;;;;;;;;;;;;;;2106882;28;19920;-48
2022/01/13 06:35:12;;;;;;;;;;;;;;;;;;2107339;28;19920;-48
2022/01/13 06:36:13;;;;;;;;;;;;;;;;;;2105156;28;19920;-48
2022/01/13 06:37:14;;;;;;;;;;;;;;;;;;2107492;28;19920;-48
2022/01/13 06:38:15;;;;;;;;;;;;;;;;;;2106829;28;20331;-50
2022/01/13 06:39:16;;;;;;;;;;;;;;;;;;2108620;28;20373;-47
2022/01/13 06:40:18;;;;;;;;;;;;;;;;;;2112137;28;19919;-48
2022/01/13 06:41:18;;;;;;;;;;;;;;;;;;2105410;28;19920;-48
2022/01/13 06:42:19;;;;;;;;;;;;;;;;;;2107888;28;19920;-49
2022/01/13 06:43:20;;;;;;;;;;;;;;;;;;2107388;28;19924;-49
2022/01/13 06:44:39;;;;;;;;;;;;;;;;;;2109065;28;19928;-49
2022/01/13 06:45:40;;;;;;;;;;;;;;;;;;2099226;28;19924;-48
2022/01/13 06:46:41;;;;;;;;;;;;;;;;;;2099107;28;19931;-48
2022/01/13 06:47:42;;;;;;;;;;;;;;;;;;2109473;28;19988;-48
2022/01/13 06:48:43;;;;;;;;;;;;;;;;;;2115868;28;20010;-48
2022/01/13 06:49:44;;;;;;;;;;;;;;;;;;2113821;28;19919;-48
2022/01/13 06:50:46;;;;;;;;;;;;;;;;;;2106572;28;19931;-48
2022/01/13 06:51:46;;;;;;;;;;;;;;;;;;2107304;28;19946;-49
2022/01/13 06:52:48;;;;;;;;;;;;;;;;;;2105171;28;20346;-48
2022/01/13 06:53:49;;;;;;;;;;;;;;;;;;2113321;28;19984;-49
2022/01/13 06:54:52;;;;;;;;;;;;;;;;;;2115623;28;19941;-48
2022/01/13 06:55:52;;;;;;;;;;;;;;;;;;2110090;28;19920;-48
2022/01/13 06:56:53;;;;;;;;;;;;;;;;;;2115519;28;19973;-48
2022/01/13 06:57:54;;;;;;;;;;;;;;;;;;2115807;28;19920;-48
2022/01/13 06:58:55;;;;;;;;;;;;;;;;;;2105416;28;19920;-48
2022/01/13 06:59:56;;;;;;;;;;;;;;;;;;2098902;28;20274;-47
2022/01/13 07:00:57;;;;;;;;;;;;;;;;;;2098521;28;19932;-48
2022/01/13 07:02:00;;;;;;;;;;;;;;;;;;2108887;28;19919;-47
2022/01/13 07:03:03;;;;;;;;;;;;;;;;;;2115597;28;19923;-47
2022/01/13 07:04:04;;;;;;;;;;;;;;;;;;2111968;28;19923;-48
2022/01/13 07:05:05;;;;;;;;;;;;;;;;;;2101573;28;19921;-43
2022/01/13 07:06:06;;;;;;;;;;;;;;;;;;2098730;28;19920;-43
2022/01/13 07:07:07;;;;;;;;;;;;;;;;;;2105954;28;19920;-43
2022/01/13 07:08:07;;;;;;;;;;;;;;;;;;2106086;28;19920;-43